Time;durP1;ratioP1;P1;durP2;ratioP2;P2;SDS_P1;SDS_P2;PMS_P1;PMS_P2;Temp;Humidity;BMP_temperature;BMP_pressure;BME280_temperature;BME280_humidity;BME280_pressure;Samples;Min_cycle;Max_cycle;Signal;HPM_P1;HPM_P2
2021/10/30 00:01:03;;;;;;;12.10;9.75;;;;;;;3.48;100.00;95342.44;5050065;28;24427;-73
2021/10/30 00:03:30;;;;;;;16.73;9.80;;;;;;;3.52;100.00;95341.41;5049283;28;24429;-74
2021/10/30 00:05:56;;;;;;;12.85;9.68;;;;;;;3.61;100.00;95341.88;5049770;28;24442;-73
2021/10/30 00:08:24;;;;;;;12.43;8.52;;;;;;;3.75;100.00;95346.41;5050180;28;24514;-73
2021/10/30 00:10:51;;;;;;;14.60;8.95;;;;;;;3.73;100.00;95349.94;5053795;28;24458;-73
2021/10/30 00:13:18;;;;;;;14.32;9.27;;;;;;;3.65;100.00;95347.69;5053784;28;24430;-73
2021/10/30 00:15:45;;;;;;;15.77;10.85;;;;;;;3.55;100.00;95344.69;5053528;28;24427;-73
2021/10/30 00:18:12;;;;;;;15.13;10.53;;;;;;;3.56;100.00;95341.25;5054127;28;24421;-73
2021/10/30 00:20:38;;;;;;;13.80;10.33;;;;;;;3.61;100.00;95333.38;5053906;28;24522;-73
2021/10/30 00:23:04;;;;;;;13.13;9.73;;;;;;;3.76;100.00;95344.69;5054002;28;24446;-73
2021/10/30 00:25:31;;;;;;;13.05;9.25;;;;;;;3.86;100.00;95333.16;5053679;28;24430;-73
2021/10/30 00:27:57;;;;;;;13.43;9.95;;;;;;;3.62;100.00;95333.28;5053773;28;24439;-73
2021/10/30 00:30:25;;;;;;;9.95;8.25;;;;;;;3.57;100.00;95335.22;5053348;28;24439;-73
2021/10/30 00:32:52;;;;;;;9.38;7.45;;;;;;;3.66;100.00;95325.47;5053841;28;24412;-73
2021/10/30 00:35:18;;;;;;;12.00;6.68;;;;;;;3.62;100.00;95322.22;5053575;28;24419;-73
2021/10/30 00:37:45;;;;;;;9.55;6.75;;;;;;;3.70;100.00;95316.78;5053713;28;24416;-73
2021/10/30 00:40:12;;;;;;;9.20;6.88;;;;;;;3.75;100.00;95308.00;5053607;28;24789;-73
2021/10/30 00:42:39;;;;;;;7.85;7.03;;;;;;;3.70;100.00;95306.53;5053370;28;24434;-73
2021/10/30 00:45:07;;;;;;;16.25;8.10;;;;;;;3.50;100.00;95309.94;5053086;28;24431;-73
2021/10/30 00:47:35;;;;;;;11.00;8.60;;;;;;;3.31;100.00;95305.59;5053300;28;24447;-73
2021/10/30 00:50:02;;;;;;;12.55;8.93;;;;;;;3.36;100.00;95303.66;5053203;28;25007;-73
2021/10/30 00:52:30;;;;;;;15.98;8.27;;;;;;;3.39;100.00;95305.28;5053346;28;24431;-73
2021/10/30 00:54:59;;;;;;;10.50;7.57;;;;;;;3.33;100.00;95302.97;5052970;28;24785;-73
2021/10/30 00:57:26;;;;;;;9.73;7.85;;;;;;;3.21;100.00;95301.75;5053144;28;24422;-73
2021/10/30 00:59:53;;;;;;;13.55;8.02;;;;;;;3.09;100.00;95302.28;5053022;28;24415;-73
2021/10/30 01:02:20;;;;;;;11.02;7.88;;;;;;;3.10;100.00;95299.63;5052976;28;24936;-73
2021/10/30 01:04:48;;;;;;;11.75;7.60;;;;;;;3.01;100.00;95289.78;5052814;28;24462;-73
2021/10/30 01:07:15;;;;;;;9.60;7.80;;;;;;;3.02;100.00;95293.19;5053041;28;24446;-73
2021/10/30 01:09:41;;;;;;;10.48;7.70;;;;;;;3.13;100.00;95294.41;5052927;28;24446;-74
2021/10/30 01:12:08;;;;;;;6.90;5.87;;;;;;;3.20;100.00;95296.72;5052651;28;25048;-73
2021/10/30 01:14:36;;;;;;;7.40;5.00;;;;;;;3.31;100.00;95292.81;5052805;28;24431;-73
2021/10/30 01:17:04;;;;;;;7.00;4.85;;;;;;;3.48;100.00;95291.25;5052973;28;24423;-73
2021/10/30 01:19:31;;;;;;;8.65;5.20;;;;;;;3.50;100.00;95280.06;5052916;28;24506;-73
2021/10/30 01:22:01;;;;;;;6.93;4.55;;;;;;;3.53;100.00;95277.38;5052138;28;24458;-73
2021/10/30 01:24:28;;;;;;;6.40;4.82;;;;;;;3.62;100.00;95268.44;5052536;28;24434;-73
2021/10/30 01:26:54;;;;;;;7.35;4.90;;;;;;;3.70;100.00;95271.50;5052535;28;24454;-74
2021/10/30 01:29:21;;;;;;;5.70;4.95;;;;;;;3.70;100.00;95263.81;5052759;28;24422;-73
2021/10/30 01:31:49;;;;;;;6.10;5.18;;;;;;;3.69;100.00;95261.34;5052455;28;24978;-73
2021/10/30 01:34:16;;;;;;;6.93;5.25;;;;;;;3.62;100.00;95261.59;5052755;28;24427;-73
2021/10/30 01:36:43;;;;;;;7.80;5.15;;;;;;;3.50;100.00;95268.97;5052477;28;24467;-73
2021/10/30 01:39:11;;;;;;;7.78;4.97;;;;;;;3.40;100.00;95265.97;5052275;28;24419;-73
2021/10/30 01:41:38;;;;;;;8.13;5.80;;;;;;;3.31;100.00;95258.69;5052543;28;24494;-73
2021/10/30 01:44:06;;;;;;;6.65;5.57;;;;;;;3.19;100.00;95254.09;5052648;28;24415;-73
2021/10/30 01:46:33;;;;;;;11.70;6.30;;;;;;;3.10;100.00;95248.47;5052176;28;24423;-73
2021/10/30 01:48:59;;;;;;;14.15;7.10;;;;;;;2.85;100.00;95242.69;5052434;28;24454;-73
2021/10/30 01:51:26;;;;;;;9.18;6.68;;;;;;;2.76;100.00;95248.19;5052061;28;24952;-73
2021/10/30 01:53:53;;;;;;;7.32;5.72;;;;;;;2.82;100.00;95247.97;5052033;28;24407;-73
2021/10/30 01:56:22;;;;;;;7.57;5.43;;;;;;;2.94;100.00;95247.44;5052153;28;24439;-73
2021/10/30 01:58:48;;;;;;;8.40;6.40;;;;;;;2.97;100.00;95239.66;5052656;28;24543;-73
2021/10/30 02:01:15;;;;;;;7.07;4.95;;;;;;;2.85;100.00;95235.03;5052035;28;24805;-73
2021/10/30 02:03:41;;;;;;;6.50;4.97;;;;;;;2.81;100.00;95239.44;5052395;28;24422;-73
2021/10/30 02:06:08;;;;;;;6.78;4.82;;;;;;;2.84;100.00;95234.19;5051747;28;24949;-73
2021/10/30 02:08:35;;;;;;;6.20;4.80;;;;;;;2.91;100.00;95242.44;5051743;28;24439;-73
2021/10/30 02:11:02;;;;;;;12.05;7.78;;;;;;;2.50;100.00;95242.41;5051972;28;24435;-73
2021/10/30 02:13:30;;;;;;;11.60;7.97;;;;;;;2.41;100.00;95245.31;5051669;28;24422;-73
2021/10/30 02:15:57;;;;;;;13.57;8.57;;;;;;;2.37;100.00;95236.09;5051626;28;24453;-73
2021/10/30 02:18:24;;;;;;;13.88;8.85;;;;;;;2.34;100.00;95237.06;5051787;28;24415;-73
2021/10/30 02:20:50;;;;;;;12.85;9.07;;;;;;;2.35;100.00;95228.50;5051657;28;24434;-73
2021/10/30 02:23:17;;;;;;;13.85;8.57;;;;;;;2.51;100.00;95230.44;5051591;28;24466;-73
2021/10/30 02:25:43;;;;;;;11.32;7.75;;;;;;;2.57;100.00;95220.00;5051224;28;24975;-73
2021/10/30 02:28:10;;;;;;;9.90;6.15;;;;;;;2.72;100.00;95218.53;5051521;28;24455;-73
2021/10/30 02:30:38;;;;;;;8.88;6.60;;;;;;;2.75;100.00;95211.56;5051219;28;24427;-73
2021/10/30 02:33:05;;;;;;;7.78;5.93;;;;;;;2.88;100.00;95211.88;5050412;28;24781;-73
2021/10/30 02:35:31;;;;;;;7.33;5.80;;;;;;;2.94;100.00;95201.41;5050902;28;24419;-73
2021/10/30 02:37:58;;;;;;;6.38;5.50;;;;;;;2.87;100.00;95193.16;5051435;28;24411;-73
2021/10/30 02:40:24;;;;;;;10.65;6.88;;;;;;;2.51;100.00;95182.72;5051244;28;24423;-73
2021/10/30 02:42:51;;;;;;;13.52;7.35;;;;;;;2.41;100.00;95184.81;5051267;28;24430;-73
2021/10/30 02:45:18;;;;;;;9.23;6.15;;;;;;;2.41;100.00;95182.28;5050651;28;24971;-73
2021/10/30 02:47:46;;;;;;;8.32;6.15;;;;;;;2.48;100.00;95179.44;5050825;28;24999;-73
2021/10/30 02:50:12;;;;;;;8.82;5.93;;;;;;;2.55;100.00;95175.75;5050724;28;24442;-73
2021/10/30 02:52:39;;;;;;;9.90;5.70;;;;;;;2.66;100.00;95171.84;5050741;28;25023;-73
2021/10/30 02:55:06;;;;;;;5.53;4.88;;;;;;;2.78;100.00;95165.41;5050958;28;24415;-73
2021/10/30 02:57:33;;;;;;;5.80;4.40;;;;;;;2.87;100.00;95154.78;5050997;28;24426;-73
2021/10/30 02:59:59;;;;;;;6.25;4.38;;;;;;;2.94;100.00;95150.25;5050811;28;24790;-73
2021/10/30 03:02:26;;;;;;;8.20;5.03;;;;;;;3.00;100.00;95147.41;5050600;28;24480;-73
2021/10/30 03:04:54;;;;;;;5.93;4.70;;;;;;;3.03;100.00;95141.34;5050633;28;24423;-73
2021/10/30 03:07:22;;;;;;;4.82;4.18;;;;;;;3.03;100.00;95149.00;5050847;28;24439;-73
2021/10/30 03:09:50;;;;;;;6.22;3.80;;;;;;;2.84;100.00;95141.31;5050789;28;24419;-73
2021/10/30 03:12:17;;;;;;;5.53;4.20;;;;;;;2.67;100.00;95134.34;5050523;28;24478;-73
2021/10/30 03:14:43;;;;;;;7.65;4.25;;;;;;;2.80;100.00;95134.66;5050198;28;24484;-73
2021/10/30 03:17:10;;;;;;;6.15;4.80;;;;;;;2.57;100.00;95141.56;5050356;28;24422;-73
2021/10/30 03:19:36;;;;;;;8.60;5.15;;;;;;;2.27;100.00;95143.66;5051006;28;24438;-73
2021/10/30 03:22:05;;;;;;;6.45;4.80;;;;;;;1.84;100.00;95139.41;5050756;28;24422;-73
2021/10/30 03:24:32;;;;;;;5.78;4.78;;;;;;;1.55;100.00;95136.22;5050337;28;24415;-73
2021/10/30 03:26:58;;;;;;;6.63;5.38;;;;;;;1.55;100.00;95128.56;5050476;28;24423;-73
2021/10/30 03:29:24;;;;;;;6.17;4.87;;;;;;;1.76;100.00;95137.16;5050358;28;24514;-73
2021/10/30 03:31:51;;;;;;;7.23;5.40;;;;;;;1.80;100.00;95125.09;5050251;28;24987;-73
2021/10/30 03:34:17;;;;;;;6.65;5.40;;;;;;;1.73;100.00;95123.66;5050343;28;24995;-73
2021/10/30 03:36:44;;;;;;;5.65;5.00;;;;;;;1.70;100.00;95122.06;5050173;28;24423;-73
2021/10/30 03:39:12;;;;;;;7.18;4.82;;;;;;;1.85;100.00;95125.75;5050955;28;24428;-73
2021/10/30 03:41:38;;;;;;;9.25;4.32;;;;;;;2.00;100.00;95135.34;5050272;28;24427;-73
2021/10/30 03:44:05;;;;;;;4.45;3.97;;;;;;;2.07;100.00;95130.84;5051728;28;24423;-73
2021/10/30 03:46:31;;;;;;;5.43;4.50;;;;;;;2.17;100.00;95119.38;5054684;28;24490;-73
2021/10/30 03:48:58;;;;;;;5.72;4.50;;;;;;;2.25;100.00;95112.22;5054555;28;24439;-73
2021/10/30 03:51:24;;;;;;;6.15;4.57;;;;;;;2.26;100.00;95115.59;5054502;28;24423;-73
2021/10/30 03:53:51;;;;;;;9.23;5.47;;;;;;;2.04;100.00;95113.06;5054332;28;24422;-73
2021/10/30 03:56:19;;;;;;;7.22;5.13;;;;;;;1.88;100.00;95100.91;5054057;28;24431;-73
2021/10/30 03:58:45;;;;;;;4.88;4.15;;;;;;;1.86;100.00;95097.63;5054043;28;24983;-73
2021/10/30 04:01:12;;;;;;;5.70;3.90;;;;;;;1.81;100.00;95091.84;5054366;28;24789;-73
2021/10/30 04:03:38;;;;;;;4.27;3.67;;;;;;;2.00;100.00;95097.03;5054095;28;25006;-73
2021/10/30 04:06:05;;;;;;;6.25;3.92;;;;;;;2.19;100.00;95092.03;5053767;28;24956;-73
2021/10/30 04:08:31;;;;;;;5.43;3.53;;;;;;;2.27;100.00;95092.56;5053968;28;24447;-73
2021/10/30 04:10:58;;;;;;;4.82;3.60;;;;;;;2.35;100.00;95084.56;5053989;28;24438;-73
2021/10/30 04:13:26;;;;;;;4.22;3.47;;;;;;;2.38;100.00;95087.00;5053719;28;24769;-73
2021/10/30 04:15:52;;;;;;;4.38;3.58;;;;;;;2.26;100.00;95080.66;5053783;28;24422;-73
2021/10/30 04:18:18;;;;;;;9.52;4.10;;;;;;;2.11;100.00;95074.47;5053919;28;24433;-73
2021/10/30 04:20:45;;;;;;;5.15;3.65;;;;;;;2.01;100.00;95069.81;5053737;28;24427;-73
2021/10/30 04:23:11;;;;;;;4.22;3.83;;;;;;;2.07;100.00;95074.66;5053861;28;24442;-73
2021/10/30 04:25:38;;;;;;;6.07;3.70;;;;;;;1.94;100.00;95067.50;5053466;28;24428;-73
2021/10/30 04:28:05;;;;;;;4.28;3.70;;;;;;;2.00;100.00;95070.69;5053359;28;24454;-73
2021/10/30 04:30:33;;;;;;;5.15;3.60;;;;;;;1.93;100.00;95070.94;5053432;28;24435;-73
2021/10/30 04:32:59;;;;;;;6.77;3.80;;;;;;;1.92;100.00;95064.16;5053723;28;24479;-73
2021/10/30 04:35:26;;;;;;;4.40;4.00;;;;;;;1.92;100.00;95064.16;5053259;28;24423;-73
2021/10/30 04:37:52;;;;;;;5.65;4.25;;;;;;;1.90;100.00;95054.91;5053448;28;24963;-73
2021/10/30 04:40:19;;;;;;;5.28;3.70;;;;;;;1.87;100.00;95057.59;5053373;28;24423;-73
2021/10/30 04:42:45;;;;;;;6.50;4.90;;;;;;;1.76;100.00;95067.41;5053932;28;24434;-73
2021/10/30 04:45:12;;;;;;;5.68;4.50;;;;;;;1.51;100.00;95065.78;5053391;28;24426;-73
2021/10/30 04:47:40;;;;;;;6.18;4.78;;;;;;;1.31;100.00;95061.47;5053392;28;24941;-74
2021/10/30 04:50:07;;;;;;;6.10;5.00;;;;;;;1.19;100.00;95050.00;5053456;28;24435;-73
2021/10/30 04:52:33;;;;;;;7.75;5.32;;;;;;;1.09;100.00;95046.13;5053275;28;24438;-73
2021/10/30 04:55:00;;;;;;;7.40;5.07;;;;;;;1.25;100.00;95037.91;5052317;28;24435;-73
2021/10/30 04:57:26;;;;;;;9.32;5.30;;;;;;;1.28;100.00;95042.88;5052638;28;24423;-73
2021/10/30 04:59:53;;;;;;;9.52;6.45;;;;;;;1.22;100.00;95031.19;5053230;28;24418;-73
2021/10/30 05:02:19;;;;;;;9.57;6.78;;;;;;;1.29;100.00;95031.78;5049904;28;24820;-74
2021/10/30 05:04:47;;;;;;;7.68;5.72;;;;;;;1.47;100.00;95027.69;5050781;28;24435;-73
2021/10/30 05:07:14;;;;;;;7.55;5.40;;;;;;;1.61;100.00;95028.81;5050175;28;25010;-73
2021/10/30 05:09:40;;;;;;;11.15;5.90;;;;;;;1.73;100.00;95024.13;5052773;28;25022;-73
2021/10/30 05:12:08;;;;;;;7.28;5.90;;;;;;;1.67;100.00;95022.66;5052693;28;24431;-73
2021/10/30 05:14:34;;;;;;;8.63;6.70;;;;;;;1.55;100.00;95023.13;5052165;28;24502;-72
2021/10/30 05:17:01;;;;;;;13.43;7.00;;;;;;;1.41;100.00;95018.56;5052149;28;24839;-72
2021/10/30 05:19:27;;;;;;;9.30;7.05;;;;;;;1.47;100.00;95012.38;5052352;28;24434;-72
2021/10/30 05:21:55;;;;;;;7.40;6.07;;;;;;;1.53;100.00;95009.59;5052000;28;24439;-72
2021/10/30 05:24:21;;;;;;;9.80;6.70;;;;;;;1.66;100.00;95005.66;5052329;28;24878;-73
2021/10/30 05:26:48;;;;;;;7.07;5.82;;;;;;;1.79;100.00;95000.91;5049722;28;24968;-73
2021/10/30 05:29:14;;;;;;;8.20;5.83;;;;;;;1.77;100.00;95000.94;5052734;28;24451;-73
2021/10/30 05:31:41;;;;;;;6.33;5.20;;;;;;;1.64;100.00;94999.81;5052817;28;24435;-73
2021/10/30 05:34:07;;;;;;;7.40;5.28;;;;;;;1.63;100.00;94996.41;5052413;28;24944;-73
2021/10/30 05:36:36;;;;;;;7.85;5.63;;;;;;;1.51;100.00;95002.00;5052107;28;24442;-73
2021/10/30 05:39:06;;;;;;;6.72;5.38;;;;;;;1.51;100.00;95006.28;5052403;28;24423;-73
2021/10/30 05:41:33;;;;;;;5.60;4.95;;;;;;;1.56;100.00;95007.75;5052525;28;24427;-73
2021/10/30 05:43:59;;;;;;;7.78;4.80;;;;;;;1.63;100.00;95015.97;5052311;28;24419;-72
2021/10/30 05:46:26;;;;;;;7.10;4.63;;;;;;;1.64;100.00;95018.50;5051906;28;24431;-73
2021/10/30 05:48:52;;;;;;;7.28;5.00;;;;;;;1.73;100.00;95006.25;5052053;28;24439;-73
2021/10/30 05:51:19;;;;;;;13.32;6.28;;;;;;;1.72;100.00;95002.03;5051853;28;24435;-73
2021/10/30 05:53:45;;;;;;;8.10;5.75;;;;;;;1.69;100.00;94996.16;5052184;28;24423;-72
2021/10/30 05:56:13;;;;;;;11.95;6.65;;;;;;;1.44;100.00;94990.38;5051765;28;24446;-73
2021/10/30 05:58:40;;;;;;;9.40;6.32;;;;;;;1.46;100.00;94975.84;5052061;28;24419;-73
2021/10/30 06:01:06;;;;;;;6.80;5.45;;;;;;;1.45;100.00;94969.09;5051861;28;24431;-73
2021/10/30 06:03:33;;;;;;;7.60;5.05;;;;;;;1.23;100.00;94968.28;5051800;28;24452;-73
2021/10/30 06:06:00;;;;;;;5.25;4.70;;;;;;;1.18;100.00;94953.94;5051337;28;24975;-73
2021/10/30 06:08:27;;;;;;;9.65;6.00;;;;;;;1.04;100.00;94951.13;5051605;28;24449;-73
2021/10/30 06:10:54;;;;;;;8.52;5.50;;;;;;;1.10;100.00;94955.16;5051749;28;24526;-73
2021/10/30 06:13:22;;;;;;;6.77;4.67;;;;;;;1.06;100.00;94945.97;5051658;28;24418;-73
2021/10/30 06:15:49;;;;;;;7.57;4.85;;;;;;;1.02;100.00;94937.59;5051319;28;24415;-73
2021/10/30 06:18:16;;;;;;;10.05;5.88;;;;;;;1.06;100.00;94939.13;5051463;28;24411;-74
2021/10/30 06:20:42;;;;;;;7.22;5.45;;;;;;;1.07;100.00;94938.25;5051556;28;24469;-73
2021/10/30 06:23:11;;;;;;;4.15;3.83;;;;;;;1.10;100.00;94924.56;5051528;28;24415;-74
2021/10/30 06:25:38;;;;;;;4.65;3.92;;;;;;;1.23;100.00;94918.09;5051066;28;24844;-74
2021/10/30 06:28:05;;;;;;;5.50;3.40;;;;;;;1.32;100.00;94915.16;5051317;28;24477;-74
2021/10/30 06:30:34;;;;;;;3.70;3.40;;;;;;;1.49;100.00;94927.25;5051064;28;24987;-73
2021/10/30 06:33:00;;;;;;;5.38;3.97;;;;;;;1.58;100.00;94914.09;5051597;28;24423;-74
2021/10/30 06:35:26;;;;;;;6.45;4.22;;;;;;;1.65;100.00;94910.38;5051051;28;24423;-73
2021/10/30 06:37:55;;;;;;;5.43;4.50;;;;;;;1.80;100.00;94915.75;5051082;28;24422;-73
2021/10/30 06:40:21;;;;;;;7.65;5.40;;;;;;;1.80;100.00;94919.13;5051289;28;24434;-74
2021/10/30 06:42:48;;;;;;;8.32;6.13;;;;;;;1.83;100.00;94925.84;5051032;28;24472;-74
2021/10/30 06:45:14;;;;;;;4.15;3.60;;;;;;;1.82;100.00;94925.00;5050671;28;24964;-74
2021/10/30 06:47:42;;;;;;;3.80;2.90;;;;;;;2.00;100.00;94922.56;5050992;28;24948;-74
2021/10/30 06:50:19;;;;;;;4.40;2.70;;;;;;;2.14;100.00;94936.38;5051070;28;24458;-74
2021/10/30 06:52:47;;;;;;;3.92;2.55;;;;;;;2.28;100.00;94934.97;5050986;28;24416;-74
2021/10/30 06:55:14;;;;;;;3.40;2.55;;;;;;;2.47;100.00;94933.25;5050744;28;24519;-73
2021/10/30 06:57:41;;;;;;;3.63;2.85;;;;;;;2.63;100.00;94934.25;5050860;28;24952;-74
2021/10/30 07:00:09;;;;;;;3.95;2.85;;;;;;;2.90;100.00;94942.38;5050668;28;24412;-74
2021/10/30 07:02:36;;;;;;;4.63;3.17;;;;;;;2.67;100.00;94943.44;5050788;28;24442;-74
2021/10/30 07:05:05;;;;;;;3.22;2.90;;;;;;;2.69;100.00;94939.97;5050461;28;24423;-74
2021/10/30 07:07:32;;;;;;;3.70;2.80;;;;;;;2.87;100.00;94946.81;5050812;28;24427;-74
2021/10/30 07:10:00;;;;;;;5.40;2.78;;;;;;;3.19;100.00;94942.75;5050507;28;24990;-74
2021/10/30 07:12:27;;;;;;;4.90;2.60;;;;;;;3.49;100.00;94940.47;5050444;28;24535;-73
2021/10/30 07:14:53;;;;;;;3.20;2.53;;;;;;;3.66;100.00;94933.69;5050104;28;24431;-74
2021/10/30 07:17:20;;;;;;;3.63;2.85;;;;;;;3.76;100.00;94930.59;5050660;28;24804;-74
2021/10/30 07:19:46;;;;;;;3.47;3.17;;;;;;;3.83;100.00;94933.69;5050066;28;24430;-74
2021/10/30 07:22:14;;;;;;;3.45;2.90;;;;;;;3.93;100.00;94919.53;5050508;28;24415;-74
2021/10/30 07:24:41;;;;;;;4.40;3.35;;;;;;;3.92;100.00;94914.47;5050118;28;24423;-74
2021/10/30 07:27:07;;;;;;;5.45;3.50;;;;;;;3.88;100.00;94916.34;5050274;28;24514;-74
2021/10/30 07:29:34;;;;;;;4.28;3.75;;;;;;;3.80;100.00;94916.72;5050429;28;24490;-73
2021/10/30 07:32:00;;;;;;;5.13;3.05;;;;;;;3.75;100.00;94916.16;5050122;28;24968;-74
2021/10/30 07:34:27;;;;;;;7.13;3.42;;;;;;;3.78;100.00;94916.00;5050043;28;24784;-72
2021/10/30 07:36:54;;;;;;;6.40;3.80;;;;;;;3.89;100.00;94912.88;5050295;28;24420;-74
2021/10/30 07:39:22;;;;;;;4.15;3.15;;;;;;;4.04;100.00;94903.59;5050181;28;24423;-73
2021/10/30 07:41:49;;;;;;;3.80;3.40;;;;;;;4.03;100.00;94902.75;5049926;28;24454;-74
2021/10/30 07:44:15;;;;;;;6.95;3.50;;;;;;;3.98;100.00;94894.50;5050330;28;24430;-75
2021/10/30 07:46:42;;;;;;;9.20;3.47;;;;;;;3.95;100.00;94893.81;5050302;28;24435;-74
2021/10/30 07:49:08;;;;;;;5.45;3.65;;;;;;;3.88;100.00;94894.13;5050250;28;24455;-74
2021/10/30 07:51:35;;;;;;;6.00;3.90;;;;;;;3.80;100.00;94892.84;5050177;28;24427;-73
2021/10/30 07:54:02;;;;;;;5.60;3.45;;;;;;;3.62;100.00;94897.97;5050116;28;24419;-73
2021/10/30 07:56:29;;;;;;;3.80;3.03;;;;;;;3.71;100.00;94904.41;5049764;28;24430;-75
2021/10/30 07:58:56;;;;;;;4.43;3.20;;;;;;;3.74;100.00;94908.53;5050841;28;24963;-73
2021/10/30 08:01:23;;;;;;;4.95;3.47;;;;;;;3.84;100.00;94917.41;5050038;28;24797;-73
2021/10/30 08:03:49;;;;;;;3.70;3.07;;;;;;;3.88;100.00;94927.41;5050540;28;24889;-74
2021/10/30 08:06:17;;;;;;;7.63;3.23;;;;;;;3.94;100.00;94916.06;5050891;28;24418;-74
2021/10/30 08:08:43;;;;;;;7.55;2.90;;;;;;;4.00;100.00;94914.91;5051186;28;24422;-74
2021/10/30 08:11:10;;;;;;;6.03;3.25;;;;;;;4.21;100.00;94918.09;5051653;28;25047;-73
2021/10/30 08:13:38;;;;;;;4.53;3.40;;;;;;;4.29;100.00;94915.97;5051730;28;24418;-74
2021/10/30 08:16:05;;;;;;;5.78;3.63;;;;;;;4.29;100.00;94901.41;5051114;28;24434;-74
2021/10/30 08:18:31;;;;;;;5.97;4.17;;;;;;;4.43;100.00;94907.56;5051077;28;24463;-74
2021/10/30 08:20:57;;;;;;;4.97;3.93;;;;;;;4.32;100.00;94916.66;5050814;28;24514;-73
2021/10/30 08:23:24;;;;;;;7.97;4.30;;;;;;;4.39;100.00;94917.16;5051040;28;24971;-73
2021/10/30 08:25:51;;;;;;;6.22;3.67;;;;;;;4.53;100.00;94914.72;5050912;28;24539;-73
2021/10/30 08:28:18;;;;;;;4.15;3.40;;;;;;;4.53;100.00;94898.50;5050707;28;24407;-73
2021/10/30 08:30:46;;;;;;;5.57;3.47;;;;;;;4.67;100.00;94906.25;5053311;28;24942;-73
2021/10/30 08:33:13;;;;;;;4.80;3.90;;;;;;;4.74;100.00;94897.31;5055637;28;24427;-74
2021/10/30 08:35:40;;;;;;;5.60;3.75;;;;;;;4.81;100.00;94902.97;5055026;28;24778;-73
2021/10/30 08:38:09;;;;;;;4.00;3.47;;;;;;;4.84;100.00;94903.63;5054901;28;24419;-74
2021/10/30 08:40:36;;;;;;;7.20;3.95;;;;;;;4.91;100.00;94903.31;5055156;28;24427;-74
2021/10/30 08:43:03;;;;;;;4.45;3.42;;;;;;;4.98;100.00;94909.75;5055290;28;24418;-74
2021/10/30 08:45:31;;;;;;;5.60;3.50;;;;;;;5.06;100.00;94907.59;5054812;28;24442;-74
2021/10/30 08:48:00;;;;;;;5.00;3.30;;;;;;;5.12;100.00;94906.41;5055061;28;24422;-74
2021/10/30 08:50:27;;;;;;;5.68;3.47;;;;;;;5.15;100.00;94904.50;5054593;28;24979;-74
2021/10/30 08:52:54;;;;;;;5.32;3.72;;;;;;;5.19;100.00;94902.59;5054944;28;24970;-73
2021/10/30 08:55:21;;;;;;;4.50;3.67;;;;;;;5.21;100.00;94888.78;5054655;28;24416;-73
2021/10/30 08:57:47;;;;;;;5.70;3.83;;;;;;;5.24;100.00;94891.16;5054676;28;24404;-73
2021/10/30 09:00:22;;;;;;;4.70;3.50;;;;;;;5.26;100.00;94886.75;5054869;28;24419;-74
2021/10/30 09:02:55;;;;;;;5.78;3.85;;;;;;;5.29;100.00;94886.59;5054357;28;24419;-72
2021/10/30 09:05:24;;;;;;;5.33;4.00;;;;;;;5.25;100.00;94884.28;5054323;28;24403;-72
2021/10/30 09:07:53;;;;;;;5.80;4.18;;;;;;;5.19;100.00;94888.03;5054701;28;24972;-72
2021/10/30 09:10:23;;;;;;;4.82;4.30;;;;;;;5.21;100.00;94890.50;5054153;28;24538;-72
2021/10/30 09:12:51;;;;;;;7.63;4.80;;;;;;;5.24;100.00;94878.34;5054630;28;24415;-72
2021/10/30 09:15:20;;;;;;;5.78;4.90;;;;;;;5.29;100.00;94883.22;5053853;28;24917;-72
2021/10/30 09:17:48;;;;;;;7.38;4.63;;;;;;;5.33;100.00;94877.81;5054411;28;24477;-73
2021/10/30 09:20:16;;;;;;;7.57;4.65;;;;;;;5.43;100.00;94883.25;5054288;28;24431;-72
2021/10/30 09:22:56;;;;;;;6.78;4.40;;;;;;;5.46;100.00;94875.38;5052869;28;24485;-72
2021/10/30 09:25:22;;;;;;;5.32;4.57;;;;;;;5.45;100.00;94889.16;5052391;28;24423;-72
2021/10/30 09:27:53;;;;;;;7.25;4.45;;;;;;;5.43;100.00;94885.81;5052557;28;24430;-72
2021/10/30 09:30:22;;;;;;;6.32;4.40;;;;;;;5.40;100.00;94883.44;5052261;28;24447;-73
2021/10/30 09:32:57;;;;;;;7.63;4.95;;;;;;;5.42;100.00;94880.78;5052957;28;24414;-72
2021/10/30 09:35:27;;;;;;;18.52;4.68;;;;;;;5.44;100.00;94878.94;5052416;28;24773;-73
2021/10/30 09:37:55;;;;;;;6.30;4.50;;;;;;;5.48;100.00;94877.84;5052992;28;24415;-74
2021/10/30 09:40:25;;;;;;;5.57;4.63;;;;;;;5.49;100.00;94875.22;5052837;28;24781;-73
2021/10/30 09:42:53;;;;;;;6.72;4.30;;;;;;;5.45;100.00;94886.59;5051846;28;24972;-73
2021/10/30 09:45:19;;;;;;;6.00;4.82;;;;;;;5.44;100.00;94884.09;5052289;28;24423;-72
2021/10/30 09:48:00;;;;;;;16.10;7.35;;;;;;;5.26;100.00;94886.75;5052358;28;24431;-73
2021/10/30 09:50:29;;;;;;;11.37;6.70;;;;;;;5.13;100.00;94885.81;5052201;28;24897;-73
2021/10/30 09:52:58;;;;;;;9.70;5.40;;;;;;;5.21;100.00;94881.06;5052948;28;24507;-74
2021/10/30 09:55:26;;;;;;;6.03;5.25;;;;;;;5.17;100.00;94892.44;5053854;28;24438;-74
2021/10/30 09:58:03;;;;;;;7.00;5.20;;;;;;;5.18;100.00;94882.97;5054243;28;24462;-74
2021/10/30 10:00:31;;;;;;;9.38;6.28;;;;;;;5.17;100.00;94894.16;5052913;28;24420;-74
2021/10/30 10:03:00;;;;;;;6.88;5.78;;;;;;;5.14;100.00;94896.91;5052461;28;24422;-74
2021/10/30 10:05:28;;;;;;;8.10;5.77;;;;;;;5.17;100.00;94894.16;5051958;28;24953;-75
2021/10/30 10:07:55;;;;;;;6.00;4.93;;;;;;;5.12;100.00;94906.41;5052074;28;24422;-73
2021/10/30 10:10:23;;;;;;;8.00;6.00;;;;;;;5.09;100.00;94897.97;5051656;28;24450;-75
2021/10/30 10:12:52;;;;;;;6.13;5.22;;;;;;;5.16;100.00;94902.78;5051737;28;24422;-75
2021/10/30 10:15:21;;;;;;;5.50;3.90;;;;;;;5.15;100.00;94901.94;5052907;28;24435;-76
2021/10/30 10:17:48;;;;;;;4.97;3.90;;;;;;;5.15;100.00;94901.13;5053294;28;24502;-76
2021/10/30 10:20:15;;;;;;;4.75;3.65;;;;;;;5.14;100.00;94904.59;5052698;28;24415;-75
2021/10/30 10:22:43;;;;;;;6.05;3.88;;;;;;;5.21;100.00;94885.38;5052994;28;24431;-76
2021/10/30 10:25:28;;;;;;;6.45;4.05;;;;;;;5.33;100.00;94874.41;5052243;28;24422;-75
2021/10/30 10:27:56;;;;;;;7.10;3.92;;;;;;;5.43;100.00;94856.75;5051270;28;24469;-75
2021/10/30 10:30:22;;;;;;;4.75;3.65;;;;;;;5.39;100.00;94863.81;5050895;28;24447;-75
2021/10/30 10:32:49;;;;;;;5.60;3.65;;;;;;;5.34;100.00;94861.50;5051277;28;24407;-75
2021/10/30 10:35:18;;;;;;;5.97;4.30;;;;;;;5.37;100.00;94860.50;5051040;28;24450;-76
2021/10/30 10:37:49;;;;;;;6.13;4.28;;;;;;;5.45;100.00;94891.72;5051347;28;24435;-75
2021/10/30 10:40:31;;;;;;;8.18;5.22;;;;;;;5.41;100.00;94895.34;5051204;28;24427;-75
2021/10/30 10:42:58;;;;;;;13.52;5.90;;;;;;;5.01;100.00;94876.22;5050889;28;24796;-76
2021/10/30 10:45:44;;;;;;;9.68;7.22;;;;;;;5.17;100.00;94874.47;5051037;28;24501;-75
2021/10/30 10:48:11;;;;;;;7.88;6.18;;;;;;;5.36;100.00;94905.06;5050835;28;24431;-75
2021/10/30 10:50:43;;;;;;;10.10;7.35;;;;;;;5.23;100.00;94888.72;5050873;28;24447;-75
2021/10/30 10:53:29;;;;;;;10.32;6.90;;;;;;;5.26;100.00;94902.16;5050233;28;24534;-75
2021/10/30 10:56:08;;;;;;;12.43;9.45;;;;;;;5.19;100.00;94892.31;5050585;28;24991;-75
2021/10/30 10:59:19;;;;;;;10.85;8.15;;;;;;;5.29;100.00;94889.16;5050917;28;24423;-75
2021/10/30 11:02:19;;;;;;;9.90;7.17;;;;;;;5.33;100.00;94884.69;5050506;28;24454;-75
2021/10/30 11:05:26;;;;;;;7.97;7.10;;;;;;;5.38;100.00;94902.41;5050522;28;24900;-75
2021/10/30 11:08:23;;;;;;;12.40;7.13;;;;;;;5.37;100.00;94904.13;5050677;28;24430;-75
2021/10/30 11:11:12;;;;;;;6.63;5.75;;;;;;;5.48;100.00;94900.97;5050818;28;24451;-75
2021/10/30 11:13:50;;;;;;;8.13;5.47;;;;;;;5.57;100.00;94905.59;5050716;28;24422;-76
2021/10/30 11:16:22;;;;;;;6.38;5.43;;;;;;;5.64;100.00;94906.91;5050187;28;24435;-76
2021/10/30 11:19:00;;;;;;;7.38;5.32;;;;;;;5.66;100.00;94896.53;5050896;28;24423;-75
2021/10/30 11:21:37;;;;;;;6.90;5.70;;;;;;;5.70;100.00;94893.69;5050551;28;24435;-75
2021/10/30 11:24:31;;;;;;;10.38;5.68;;;;;;;5.72;100.00;94932.16;5050539;28;24435;-75
2021/10/30 11:27:06;;;;;;;9.95;6.20;;;;;;;5.72;100.00;94939.88;5050597;28;24422;-75
2021/10/30 11:29:34;;;;;;;9.05;4.95;;;;;;;5.71;100.00;94945.88;5050521;28;24423;-75
2021/10/30 11:32:03;;;;;;;8.25;5.75;;;;;;;5.63;100.00;94930.91;5066087;22;24482;-77
2021/10/30 11:34:30;;;;;;;5.43;4.93;;;;;;;5.77;100.00;94948.13;5050142;28;24420;-78
2021/10/30 11:36:58;;;;;;;6.57;5.87;;;;;;;5.75;100.00;94914.81;5050228;28;24998;-76